Terminal Aerodrome Forecast
Issued by NWS Cleveland, OH

Home | Current Version | Previous Version | Text Only | Print | Product List | Glossary On
Versions: 1 2 3 4 5 6 7 8 9 10 11 12 13 14 15 16
539
FTUS41 KCLE 011738
TAFYNG
TAF
KYNG 011738Z 0118/0218 20015G25KT P6SM SCT015 BKN050
      TEMPO 0121/0123 3SM SHRA OVC015
     FM012300 25020G32KT P6SM VCSH OVC025
     FM020000 28020G35KT P6SM OVC015
      TEMPO 0201/0204 -SHRA
     FM020800 27018G30KT P6SM OVC025
     FM021600 30012G20KT P6SM BKN030=

USA.gov is the U.S. government's official web portal to all federal, state and local government web resources and services.